sensor_id;sensor_type;location;lat;lon;timestamp;pressure;altitude;pressure_sealevel;temperature
68127;BMP180;54931;52.098;21.006;2023-12-22T00:00:44;96551.00;;;4.80
68127;BMP180;54931;52.098;21.006;2023-12-22T00:03:34;96557.00;;;4.80
68127;BMP180;54931;52.098;21.006;2023-12-22T00:06:03;96543.80;;;4.70
68127;BMP180;54931;52.098;21.006;2023-12-22T00:08:30;96547.00;;;4.70
68127;BMP180;54931;52.098;21.006;2023-12-22T00:10:58;96549.60;;;4.70
68127;BMP180;54931;52.098;21.006;2023-12-22T00:13:26;96558.80;;;4.70
68127;BMP180;54931;52.098;21.006;2023-12-22T00:15:54;96545.80;;;4.60
68127;BMP180;54931;52.098;21.006;2023-12-22T00:18:21;96557.40;;;4.70
68127;BMP180;54931;52.098;21.006;2023-12-22T00:20:49;96563.80;;;4.60
68127;BMP180;54931;52.098;21.006;2023-12-22T00:23:17;96567.40;;;4.60
68127;BMP180;54931;52.098;21.006;2023-12-22T00:25:45;96574.60;;;4.50
68127;BMP180;54931;52.098;21.006;2023-12-22T00:28:12;96577.80;;;4.50
68127;BMP180;54931;52.098;21.006;2023-12-22T00:30:40;96591.20;;;4.50
68127;BMP180;54931;52.098;21.006;2023-12-22T00:33:08;96583.40;;;4.50
68127;BMP180;54931;52.098;21.006;2023-12-22T00:35:35;96597.00;;;4.50
68127;BMP180;54931;52.098;21.006;2023-12-22T00:38:04;96602.00;;;4.40
68127;BMP180;54931;52.098;21.006;2023-12-22T00:40:31;96602.20;;;4.36
68127;BMP180;54931;52.098;21.006;2023-12-22T00:42:59;96598.00;;;4.30
68127;BMP180;54931;52.098;21.006;2023-12-22T00:45:26;96605.20;;;4.30
68127;BMP180;54931;52.098;21.006;2023-12-22T00:47:54;96605.20;;;4.26
68127;BMP180;54931;52.098;21.006;2023-12-22T00:50:22;96609.40;;;4.20
68127;BMP180;54931;52.098;21.006;2023-12-22T00:52:49;96608.40;;;4.14
68127;BMP180;54931;52.098;21.006;2023-12-22T00:55:17;96607.40;;;4.10
68127;BMP180;54931;52.098;21.006;2023-12-22T00:57:45;96606.00;;;4.10
68127;BMP180;54931;52.098;21.006;2023-12-22T01:00:14;96614.80;;;4.10
68127;BMP180;54931;52.098;21.006;2023-12-22T01:02:41;96614.00;;;4.00
68127;BMP180;54931;52.098;21.006;2023-12-22T01:05:10;96607.80;;;4.00
68127;BMP180;54931;52.098;21.006;2023-12-22T01:07:38;96603.40;;;3.90
68127;BMP180;54931;52.098;21.006;2023-12-22T01:10:07;96609.00;;;3.88
68127;BMP180;54931;52.098;21.006;2023-12-22T01:12:36;96607.80;;;3.80
68127;BMP180;54931;52.098;21.006;2023-12-22T01:15:06;96593.20;;;3.82
68127;BMP180;54931;52.098;21.006;2023-12-22T01:17:35;96597.80;;;3.80
68127;BMP180;54931;52.098;21.006;2023-12-22T01:20:04;96596.20;;;3.80
68127;BMP180;54931;52.098;21.006;2023-12-22T01:22:32;96597.40;;;3.80
68127;BMP180;54931;52.098;21.006;2023-12-22T01:25:02;96599.00;;;3.70
68127;BMP180;54931;52.098;21.006;2023-12-22T01:27:31;96594.00;;;3.70
68127;BMP180;54931;52.098;21.006;2023-12-22T01:29:59;96601.60;;;3.72
68127;BMP180;54931;52.098;21.006;2023-12-22T01:32:26;96605.60;;;3.70
68127;BMP180;54931;52.098;21.006;2023-12-22T01:35:00;96603.40;;;3.70
68127;BMP180;54931;52.098;21.006;2023-12-22T01:37:31;96598.20;;;3.70
68127;BMP180;54931;52.098;21.006;2023-12-22T01:39:59;96600.40;;;3.66
68127;BMP180;54931;52.098;21.006;2023-12-22T01:42:27;96605.00;;;3.60
68127;BMP180;54931;52.098;21.006;2023-12-22T01:44:55;96601.20;;;3.60
68127;BMP180;54931;52.098;21.006;2023-12-22T01:47:23;96600.40;;;3.60
68127;BMP180;54931;52.098;21.006;2023-12-22T01:49:51;96593.20;;;3.60
68127;BMP180;54931;52.098;21.006;2023-12-22T01:52:19;96600.80;;;3.60
68127;BMP180;54931;52.098;21.006;2023-12-22T01:54:47;96598.60;;;3.60
68127;BMP180;54931;52.098;21.006;2023-12-22T01:57:17;96609.20;;;3.60
68127;BMP180;54931;52.098;21.006;2023-12-22T01:59:48;96609.80;;;3.64
68127;BMP180;54931;52.098;21.006;2023-12-22T02:02:16;96616.80;;;3.70
68127;BMP180;54931;52.098;21.006;2023-12-22T02:04:44;96609.00;;;3.62
68127;BMP180;54931;52.098;21.006;2023-12-22T02:07:12;96605.60;;;3.60
68127;BMP180;54931;52.098;21.006;2023-12-22T02:09:40;96614.40;;;3.54
68127;BMP180;54931;52.098;21.006;2023-12-22T02:12:09;96609.20;;;3.50
68127;BMP180;54931;52.098;21.006;2023-12-22T02:14:36;96614.40;;;3.50
68127;BMP180;54931;52.098;21.006;2023-12-22T02:17:26;96612.40;;;3.42
68127;BMP180;54931;52.098;21.006;2023-12-22T02:19:53;96608.80;;;3.40
68127;BMP180;54931;52.098;21.006;2023-12-22T02:22:23;96609.60;;;3.40
68127;BMP180;54931;52.098;21.006;2023-12-22T02:24:51;96611.60;;;3.50
68127;BMP180;54931;52.098;21.006;2023-12-22T02:27:44;96607.80;;;3.56
68127;BMP180;54931;52.098;21.006;2023-12-22T02:30:47;96605.60;;;3.60
68127;BMP180;54931;52.098;21.006;2023-12-22T02:33:18;96602.20;;;3.70
68127;BMP180;54931;52.098;21.006;2023-12-22T02:35:49;96604.80;;;3.72
68127;BMP180;54931;52.098;21.006;2023-12-22T02:38:18;96596.80;;;3.80
68127;BMP180;54931;52.098;21.006;2023-12-22T02:40:47;96597.40;;;3.82
68127;BMP180;54931;52.098;21.006;2023-12-22T02:43:15;96593.80;;;3.90
68127;BMP180;54931;52.098;21.006;2023-12-22T02:45:42;96586.60;;;3.90
68127;BMP180;54931;52.098;21.006;2023-12-22T02:48:10;96584.80;;;3.90
68127;BMP180;54931;52.098;21.006;2023-12-22T02:50:38;96590.00;;;3.90
68127;BMP180;54931;52.098;21.006;2023-12-22T02:53:06;96574.20;;;4.00
68127;BMP180;54931;52.098;21.006;2023-12-22T02:55:34;96588.40;;;4.00
68127;BMP180;54931;52.098;21.006;2023-12-22T02:58:01;96592.60;;;3.92
68127;BMP180;54931;52.098;21.006;2023-12-22T03:00:29;96590.20;;;3.90
68127;BMP180;54931;52.098;21.006;2023-12-22T03:02:57;96587.00;;;3.92
68127;BMP180;54931;52.098;21.006;2023-12-22T03:05:25;96590.40;;;3.94
68127;BMP180;54931;52.098;21.006;2023-12-22T03:07:52;96584.40;;;4.00
68127;BMP180;54931;52.098;21.006;2023-12-22T03:10:20;96599.40;;;4.00
68127;BMP180;54931;52.098;21.006;2023-12-22T03:12:48;96594.80;;;4.00
68127;BMP180;54931;52.098;21.006;2023-12-22T03:15:15;96584.80;;;4.08
68127;BMP180;54931;52.098;21.006;2023-12-22T03:17:43;96576.20;;;4.00
68127;BMP180;54931;52.098;21.006;2023-12-22T03:20:10;96595.20;;;4.02
68127;BMP180;54931;52.098;21.006;2023-12-22T03:22:38;96599.80;;;4.00
68127;BMP180;54931;52.098;21.006;2023-12-22T03:25:06;96602.20;;;3.90
68127;BMP180;54931;52.098;21.006;2023-12-22T03:27:34;96592.60;;;3.80
68127;BMP180;54931;52.098;21.006;2023-12-22T03:30:03;96594.80;;;3.70
68127;BMP180;54931;52.098;21.006;2023-12-22T03:32:31;96585.80;;;3.58
68127;BMP180;54931;52.098;21.006;2023-12-22T03:34:58;96597.20;;;3.50
68127;BMP180;54931;52.098;21.006;2023-12-22T03:37:26;96590.40;;;3.48
68127;BMP180;54931;52.098;21.006;2023-12-22T03:39:54;96589.00;;;3.40
68127;BMP180;54931;52.098;21.006;2023-12-22T03:42:22;96578.80;;;3.40
68127;BMP180;54931;52.098;21.006;2023-12-22T03:44:49;96581.00;;;3.32
68127;BMP180;54931;52.098;21.006;2023-12-22T03:47:17;96586.40;;;3.30
68127;BMP180;54931;52.098;21.006;2023-12-22T03:49:44;96580.40;;;3.30
68127;BMP180;54931;52.098;21.006;2023-12-22T03:52:12;96563.80;;;3.30
68127;BMP180;54931;52.098;21.006;2023-12-22T03:54:40;96575.20;;;3.30
68127;BMP180;54931;52.098;21.006;2023-12-22T03:57:08;96578.80;;;3.30
68127;BMP180;54931;52.098;21.006;2023-12-22T03:59:35;96582.00;;;3.30
68127;BMP180;54931;52.098;21.006;2023-12-22T04:02:03;96581.40;;;3.24
68127;BMP180;54931;52.098;21.006;2023-12-22T04:04:31;96579.40;;;3.20
68127;BMP180;54931;52.098;21.006;2023-12-22T04:06:59;96577.40;;;3.20
68127;BMP180;54931;52.098;21.006;2023-12-22T04:09:26;96573.00;;;3.20
68127;BMP180;54931;52.098;21.006;2023-12-22T04:11:54;96576.60;;;3.20
68127;BMP180;54931;52.098;21.006;2023-12-22T04:14:42;96583.00;;;3.26
68127;BMP180;54931;52.098;21.006;2023-12-22T04:17:12;96577.60;;;3.30
68127;BMP180;54931;52.098;21.006;2023-12-22T04:19:46;96581.80;;;3.30
68127;BMP180;54931;52.098;21.006;2023-12-22T04:22:35;96574.60;;;3.30
68127;BMP180;54931;52.098;21.006;2023-12-22T04:25:04;96588.20;;;3.30
68127;BMP180;54931;52.098;21.006;2023-12-22T04:27:34;96594.60;;;3.24
68127;BMP180;54931;52.098;21.006;2023-12-22T04:30:02;96592.20;;;3.20
68127;BMP180;54931;52.098;21.006;2023-12-22T04:32:30;96583.00;;;3.20
68127;BMP180;54931;52.098;21.006;2023-12-22T04:34:58;96590.20;;;3.20
68127;BMP180;54931;52.098;21.006;2023-12-22T04:37:26;96597.60;;;3.20
68127;BMP180;54931;52.098;21.006;2023-12-22T04:39:54;96598.20;;;3.20
68127;BMP180;54931;52.098;21.006;2023-12-22T04:42:21;96596.00;;;3.10
68127;BMP180;54931;52.098;21.006;2023-12-22T04:44:49;96602.40;;;3.10
68127;BMP180;54931;52.098;21.006;2023-12-22T04:47:17;96606.80;;;3.04
68127;BMP180;54931;52.098;21.006;2023-12-22T04:49:44;96609.80;;;3.00
68127;BMP180;54931;52.098;21.006;2023-12-22T04:52:12;96611.40;;;3.00
68127;BMP180;54931;52.098;21.006;2023-12-22T04:54:40;96619.40;;;2.90
68127;BMP180;54931;52.098;21.006;2023-12-22T04:57:08;96620.40;;;2.90
68127;BMP180;54931;52.098;21.006;2023-12-22T04:59:36;96620.20;;;2.80
68127;BMP180;54931;52.098;21.006;2023-12-22T05:02:04;96630.20;;;2.70
68127;BMP180;54931;52.098;21.006;2023-12-22T05:04:32;96625.40;;;2.60
68127;BMP180;54931;52.098;21.006;2023-12-22T05:06:59;96624.60;;;2.50
68127;BMP180;54931;52.098;21.006;2023-12-22T05:09:28;96622.00;;;2.40
68127;BMP180;54931;52.098;21.006;2023-12-22T05:11:56;96621.20;;;2.40
68127;BMP180;54931;52.098;21.006;2023-12-22T05:14:23;96637.40;;;2.40
68127;BMP180;54931;52.098;21.006;2023-12-22T05:16:51;96637.00;;;2.40
68127;BMP180;54931;52.098;21.006;2023-12-22T05:19:22;96627.20;;;2.40
68127;BMP180;54931;52.098;21.006;2023-12-22T05:21:50;96618.40;;;2.40
68127;BMP180;54931;52.098;21.006;2023-12-22T05:24:20;96627.20;;;2.40
68127;BMP180;54931;52.098;21.006;2023-12-22T05:26:47;96625.20;;;2.40
68127;BMP180;54931;52.098;21.006;2023-12-22T05:29:15;96636.20;;;2.40
68127;BMP180;54931;52.098;21.006;2023-12-22T05:31:43;96640.40;;;2.30
68127;BMP180;54931;52.098;21.006;2023-12-22T05:34:11;96638.80;;;2.30
68127;BMP180;54931;52.098;21.006;2023-12-22T05:36:39;96650.00;;;2.30
68127;BMP180;54931;52.098;21.006;2023-12-22T05:39:07;96640.20;;;2.30
68127;BMP180;54931;52.098;21.006;2023-12-22T05:41:38;96643.00;;;2.30
68127;BMP180;54931;52.098;21.006;2023-12-22T05:44:06;96649.80;;;2.30
68127;BMP180;54931;52.098;21.006;2023-12-22T05:46:37;96653.80;;;2.24
68127;BMP180;54931;52.098;21.006;2023-12-22T05:49:08;96655.60;;;2.20
68127;BMP180;54931;52.098;21.006;2023-12-22T05:51:37;96655.60;;;2.20
68127;BMP180;54931;52.098;21.006;2023-12-22T05:54:09;96664.00;;;2.20
68127;BMP180;54931;52.098;21.006;2023-12-22T05:56:40;96666.40;;;2.20
68127;BMP180;54931;52.098;21.006;2023-12-22T05:59:08;96664.80;;;2.22
68127;BMP180;54931;52.098;21.006;2023-12-22T06:01:35;96666.40;;;2.26
68127;BMP180;54931;52.098;21.006;2023-12-22T06:04:04;96669.60;;;2.26
68127;BMP180;54931;52.098;21.006;2023-12-22T06:06:33;96668.00;;;2.22
68127;BMP180;54931;52.098;21.006;2023-12-22T06:09:00;96670.20;;;2.22
68127;BMP180;54931;52.098;21.006;2023-12-22T06:11:29;96665.20;;;2.20
68127;BMP180;54931;52.098;21.006;2023-12-22T06:13:56;96671.80;;;2.30
68127;BMP180;54931;52.098;21.006;2023-12-22T06:16:24;96670.00;;;2.28
68127;BMP180;54931;52.098;21.006;2023-12-22T06:18:52;96665.20;;;2.22
68127;BMP180;54931;52.098;21.006;2023-12-22T06:21:19;96650.00;;;2.28
68127;BMP180;54931;52.098;21.006;2023-12-22T06:23:48;96656.40;;;2.30
68127;BMP180;54931;52.098;21.006;2023-12-22T06:26:16;96659.80;;;2.30
68127;BMP180;54931;52.098;21.006;2023-12-22T06:28:43;96665.20;;;2.40
68127;BMP180;54931;52.098;21.006;2023-12-22T06:31:20;96675.20;;;2.38
68127;BMP180;54931;52.098;21.006;2023-12-22T06:33:50;96676.40;;;2.40
68127;BMP180;54931;52.098;21.006;2023-12-22T06:36:23;96689.40;;;2.50
68127;BMP180;54931;52.098;21.006;2023-12-22T06:38:53;96678.60;;;2.50
68127;BMP180;54931;52.098;21.006;2023-12-22T06:41:30;96678.60;;;2.60
68127;BMP180;54931;52.098;21.006;2023-12-22T06:43:59;96684.40;;;2.70
68127;BMP180;54931;52.098;21.006;2023-12-22T06:46:30;96668.00;;;2.80
68127;BMP180;54931;52.098;21.006;2023-12-22T06:48:59;96700.80;;;2.84
68127;BMP180;54931;52.098;21.006;2023-12-22T06:51:30;96692.00;;;2.90
68127;BMP180;54931;52.098;21.006;2023-12-22T06:53:58;96711.00;;;2.90
68127;BMP180;54931;52.098;21.006;2023-12-22T06:56:32;96708.80;;;2.96
68127;BMP180;54931;52.098;21.006;2023-12-22T06:59:01;96707.20;;;3.00
68127;BMP180;54931;52.098;21.006;2023-12-22T07:01:32;96709.20;;;3.00
68127;BMP180;54931;52.098;21.006;2023-12-22T07:04:02;96713.20;;;3.00
68127;BMP180;54931;52.098;21.006;2023-12-22T07:06:34;96718.60;;;3.00
68127;BMP180;54931;52.098;21.006;2023-12-22T07:11:41;96718.40;;;2.98
68127;BMP180;54931;52.098;21.006;2023-12-22T07:14:09;96719.40;;;2.90
68127;BMP180;54931;52.098;21.006;2023-12-22T07:16:37;96727.00;;;2.90
68127;BMP180;54931;52.098;21.006;2023-12-22T07:19:05;96717.00;;;2.90
68127;BMP180;54931;52.098;21.006;2023-12-22T07:21:33;96727.00;;;2.80
68127;BMP180;54931;52.098;21.006;2023-12-22T07:24:01;96723.00;;;2.80
68127;BMP180;54931;52.098;21.006;2023-12-22T07:26:28;96729.40;;;2.78
68127;BMP180;54931;52.098;21.006;2023-12-22T07:28:56;96732.00;;;2.70
68127;BMP180;54931;52.098;21.006;2023-12-22T07:31:24;96747.60;;;2.72
68127;BMP180;54931;52.098;21.006;2023-12-22T07:33:52;96757.40;;;2.70
68127;BMP180;54931;52.098;21.006;2023-12-22T07:36:20;96763.00;;;2.70
68127;BMP180;54931;52.098;21.006;2023-12-22T07:38:48;96774.00;;;2.72
68127;BMP180;54931;52.098;21.006;2023-12-22T07:41:16;96772.80;;;2.80
68127;BMP180;54931;52.098;21.006;2023-12-22T07:43:44;96767.40;;;2.80
68127;BMP180;54931;52.098;21.006;2023-12-22T07:46:19;96781.20;;;2.90
68127;BMP180;54931;52.098;21.006;2023-12-22T07:48:47;96774.20;;;2.94
68127;BMP180;54931;52.098;21.006;2023-12-22T07:51:14;96777.00;;;3.10
68127;BMP180;54931;52.098;21.006;2023-12-22T07:53:42;96777.60;;;3.20
68127;BMP180;54931;52.098;21.006;2023-12-22T07:56:11;96773.60;;;3.30
68127;BMP180;54931;52.098;21.006;2023-12-22T07:58:39;96785.00;;;3.28
68127;BMP180;54931;52.098;21.006;2023-12-22T08:01:06;96781.20;;;3.10
68127;BMP180;54931;52.098;21.006;2023-12-22T08:03:34;96788.00;;;3.00
68127;BMP180;54931;52.098;21.006;2023-12-22T08:06:03;96774.60;;;3.00
68127;BMP180;54931;52.098;21.006;2023-12-22T08:08:31;96768.40;;;3.20
68127;BMP180;54931;52.098;21.006;2023-12-22T08:11:00;96784.60;;;3.30
68127;BMP180;54931;52.098;21.006;2023-12-22T08:13:28;96785.20;;;3.50
68127;BMP180;54931;52.098;21.006;2023-12-22T08:15:56;96773.20;;;3.62
68127;BMP180;54931;52.098;21.006;2023-12-22T08:18:24;96794.00;;;3.76
68127;BMP180;54931;52.098;21.006;2023-12-22T08:20:52;96794.20;;;3.80
68127;BMP180;54931;52.098;21.006;2023-12-22T08:23:21;96801.40;;;3.80
68127;BMP180;54931;52.098;21.006;2023-12-22T08:25:49;96795.20;;;3.82
68127;BMP180;54931;52.098;21.006;2023-12-22T08:28:17;96806.40;;;3.90
68127;BMP180;54931;52.098;21.006;2023-12-22T08:30:44;96803.60;;;4.00
68127;BMP180;54931;52.098;21.006;2023-12-22T08:33:12;96810.20;;;4.20
68127;BMP180;54931;52.098;21.006;2023-12-22T08:35:40;96818.40;;;4.20
68127;BMP180;54931;52.098;21.006;2023-12-22T08:38:08;96819.40;;;4.18
68127;BMP180;54931;52.098;21.006;2023-12-22T08:40:36;96826.60;;;4.30
68127;BMP180;54931;52.098;21.006;2023-12-22T08:43:04;96831.80;;;4.40
68127;BMP180;54931;52.098;21.006;2023-12-22T08:45:33;96832.40;;;4.50
68127;BMP180;54931;52.098;21.006;2023-12-22T08:48:02;96830.40;;;4.70
68127;BMP180;54931;52.098;21.006;2023-12-22T08:50:30;96828.20;;;4.80
68127;BMP180;54931;52.098;21.006;2023-12-22T08:52:57;96846.80;;;4.80
68127;BMP180;54931;52.098;21.006;2023-12-22T08:55:26;96847.80;;;4.80
68127;BMP180;54931;52.098;21.006;2023-12-22T08:57:53;96848.80;;;4.90
68127;BMP180;54931;52.098;21.006;2023-12-22T09:00:21;96842.60;;;5.06
68127;BMP180;54931;52.098;21.006;2023-12-22T09:02:49;96844.20;;;5.16
68127;BMP180;54931;52.098;21.006;2023-12-22T09:05:17;96834.80;;;5.22
68127;BMP180;54931;52.098;21.006;2023-12-22T09:07:46;96830.80;;;5.22
68127;BMP180;54931;52.098;21.006;2023-12-22T09:10:14;96828.80;;;5.28
68127;BMP180;54931;52.098;21.006;2023-12-22T09:12:42;96820.80;;;5.40
68127;BMP180;54931;52.098;21.006;2023-12-22T09:15:10;96820.60;;;5.52
68127;BMP180;54931;52.098;21.006;2023-12-22T09:17:37;96814.00;;;5.50
68127;BMP180;54931;52.098;21.006;2023-12-22T09:20:06;96813.00;;;5.40
68127;BMP180;54931;52.098;21.006;2023-12-22T09:22:34;96809.00;;;5.30
68127;BMP180;54931;52.098;21.006;2023-12-22T09:25:03;96801.20;;;5.36
68127;BMP180;54931;52.098;21.006;2023-12-22T09:27:31;96813.60;;;5.40
68127;BMP180;54931;52.098;21.006;2023-12-22T09:29:58;96806.00;;;5.40
68127;BMP180;54931;52.098;21.006;2023-12-22T09:32:27;96809.80;;;5.56
68127;BMP180;54931;52.098;21.006;2023-12-22T09:34:55;96799.80;;;5.60
68127;BMP180;54931;52.098;21.006;2023-12-22T09:37:24;96794.60;;;5.60
68127;BMP180;54931;52.098;21.006;2023-12-22T09:39:53;96796.60;;;5.60
68127;BMP180;54931;52.098;21.006;2023-12-22T09:42:21;96796.80;;;5.50
68127;BMP180;54931;52.098;21.006;2023-12-22T09:44:52;96772.60;;;5.28
68127;BMP180;54931;52.098;21.006;2023-12-22T09:47:22;96772.20;;;5.40
68127;BMP180;54931;52.098;21.006;2023-12-22T09:49:52;96770.00;;;5.60
68127;BMP180;54931;52.098;21.006;2023-12-22T09:52:21;96759.80;;;5.60
68127;BMP180;54931;52.098;21.006;2023-12-22T09:54:49;96759.20;;;5.60
68127;BMP180;54931;52.098;21.006;2023-12-22T09:57:18;96761.20;;;5.74
68127;BMP180;54931;52.098;21.006;2023-12-22T09:59:49;96769.00;;;5.90
68127;BMP180;54931;52.098;21.006;2023-12-22T10:02:18;96756.00;;;5.70
68127;BMP180;54931;52.098;21.006;2023-12-22T10:04:46;96753.00;;;5.58
68127;BMP180;54931;52.098;21.006;2023-12-22T10:07:14;96756.40;;;5.40
68127;BMP180;54931;52.098;21.006;2023-12-22T10:09:44;96745.60;;;5.30
68127;BMP180;54931;52.098;21.006;2023-12-22T10:12:16;96746.40;;;5.10
68127;BMP180;54931;52.098;21.006;2023-12-22T10:14:47;96741.40;;;4.90
68127;BMP180;54931;52.098;21.006;2023-12-22T10:17:15;96726.20;;;4.70
68127;BMP180;54931;52.098;21.006;2023-12-22T10:19:44;96726.00;;;4.50
68127;BMP180;54931;52.098;21.006;2023-12-22T10:22:11;96731.60;;;4.30
68127;BMP180;54931;52.098;21.006;2023-12-22T10:24:44;96828.60;;;3.76
68127;BMP180;54931;52.098;21.006;2023-12-22T10:27:15;96833.60;;;2.52
68127;BMP180;54931;52.098;21.006;2023-12-22T10:29:54;96829.80;;;1.42
68127;BMP180;54931;52.098;21.006;2023-12-22T10:32:22;96842.20;;;0.78
68127;BMP180;54931;52.098;21.006;2023-12-22T10:34:52;96845.60;;;0.38
68127;BMP180;54931;52.098;21.006;2023-12-22T10:37:21;96833.20;;;-0.06
68127;BMP180;54931;52.098;21.006;2023-12-22T10:39:54;96853.60;;;-0.24
68127;BMP180;54931;52.098;21.006;2023-12-22T10:42:23;96847.80;;;-0.40
68127;BMP180;54931;52.098;21.006;2023-12-22T10:44:56;96843.00;;;-0.58
68127;BMP180;54931;52.098;21.006;2023-12-22T10:47:25;96858.60;;;-0.60
68127;BMP180;54931;52.098;21.006;2023-12-22T10:49:53;96852.20;;;-0.70
68127;BMP180;54931;52.098;21.006;2023-12-22T10:52:23;96844.20;;;-0.70
68127;BMP180;54931;52.098;21.006;2023-12-22T10:54:57;96839.60;;;-0.70
68127;BMP180;54931;52.098;21.006;2023-12-22T10:57:27;96838.00;;;-0.60
68127;BMP180;54931;52.098;21.006;2023-12-22T10:59:58;96830.80;;;-0.60
68127;BMP180;54931;52.098;21.006;2023-12-22T11:02:35;96833.20;;;-0.50
68127;BMP180;54931;52.098;21.006;2023-12-22T11:05:07;96808.20;;;-0.50
68127;BMP180;54931;52.098;21.006;2023-12-22T11:07:48;96783.60;;;-0.40
68127;BMP180;54931;52.098;21.006;2023-12-22T11:10:19;96774.60;;;-0.40
68127;BMP180;54931;52.098;21.006;2023-12-22T11:12:51;96768.80;;;-0.30
68127;BMP180;54931;52.098;21.006;2023-12-22T11:15:19;96760.80;;;-0.30
68127;BMP180;54931;52.098;21.006;2023-12-22T11:17:51;96761.80;;;-0.30
68127;BMP180;54931;52.098;21.006;2023-12-22T11:20:20;96755.80;;;-0.30
68127;BMP180;54931;52.098;21.006;2023-12-22T11:22:51;96737.80;;;-0.28
68127;BMP180;54931;52.098;21.006;2023-12-22T11:25:20;96751.60;;;-0.30
68127;BMP180;54931;52.098;21.006;2023-12-22T11:27:52;96747.80;;;-0.28
68127;BMP180;54931;52.098;21.006;2023-12-22T11:30:24;96748.80;;;-0.28
68127;BMP180;54931;52.098;21.006;2023-12-22T11:32:54;96747.20;;;-0.28
68127;BMP180;54931;52.098;21.006;2023-12-22T11:35:23;96752.20;;;-0.30
68127;BMP180;54931;52.098;21.006;2023-12-22T11:37:53;96748.40;;;-0.30
68127;BMP180;54931;52.098;21.006;2023-12-22T11:40:22;96745.40;;;-0.30
68127;BMP180;54931;52.098;21.006;2023-12-22T11:42:51;96736.80;;;-0.24
68127;BMP180;54931;52.098;21.006;2023-12-22T11:45:19;96737.60;;;-0.10
68127;BMP180;54931;52.098;21.006;2023-12-22T11:47:47;96736.00;;;0.00
68127;BMP180;54931;52.098;21.006;2023-12-22T11:50:29;96736.20;;;0.10
68127;BMP180;54931;52.098;21.006;2023-12-22T11:53:21;96723.80;;;0.20
68127;BMP180;54931;52.098;21.006;2023-12-22T11:56:06;96726.40;;;0.36
68127;BMP180;54931;52.098;21.006;2023-12-22T11:58:45;96733.00;;;0.40
68127;BMP180;54931;52.098;21.006;2023-12-22T12:01:27;96733.20;;;0.50
68127;BMP180;54931;52.098;21.006;2023-12-22T12:04:03;96732.60;;;0.60
68127;BMP180;54931;52.098;21.006;2023-12-22T12:06:33;96735.00;;;0.60
68127;BMP180;54931;52.098;21.006;2023-12-22T12:09:06;96725.00;;;0.68
68127;BMP180;54931;52.098;21.006;2023-12-22T12:14:29;96723.40;;;0.70
68127;BMP180;54931;52.098;21.006;2023-12-22T12:17:06;96729.60;;;0.62
68127;BMP180;54931;52.098;21.006;2023-12-22T12:19:41;96715.00;;;0.60
68127;BMP180;54931;52.098;21.006;2023-12-22T12:22:14;96714.00;;;0.60
68127;BMP180;54931;52.098;21.006;2023-12-22T12:24:42;96708.20;;;0.70
68127;BMP180;54931;52.098;21.006;2023-12-22T12:27:10;96705.00;;;0.72
68127;BMP180;54931;52.098;21.006;2023-12-22T12:29:39;96707.00;;;0.76
68127;BMP180;54931;52.098;21.006;2023-12-22T12:32:08;96701.60;;;0.72
68127;BMP180;54931;52.098;21.006;2023-12-22T12:34:37;96706.40;;;0.70
68127;BMP180;54931;52.098;21.006;2023-12-22T12:37:06;96703.00;;;0.70
68127;BMP180;54931;52.098;21.006;2023-12-22T12:39:35;96711.00;;;0.70
68127;BMP180;54931;52.098;21.006;2023-12-22T12:42:07;96704.80;;;0.78
68127;BMP180;54931;52.098;21.006;2023-12-22T12:44:37;96698.20;;;0.80
68127;BMP180;54931;52.098;21.006;2023-12-22T12:47:15;96695.60;;;0.80
68127;BMP180;54931;52.098;21.006;2023-12-22T12:49:43;96695.20;;;0.80
68127;BMP180;54931;52.098;21.006;2023-12-22T12:52:14;96695.00;;;0.84
68127;BMP180;54931;52.098;21.006;2023-12-22T12:54:43;96695.20;;;0.82
68127;BMP180;54931;52.098;21.006;2023-12-22T12:57:15;96695.80;;;0.80
68127;BMP180;54931;52.098;21.006;2023-12-22T12:59:48;96694.80;;;0.80
68127;BMP180;54931;52.098;21.006;2023-12-22T13:02:17;96691.60;;;0.80
68127;BMP180;54931;52.098;21.006;2023-12-22T13:04:45;96680.80;;;0.70
68127;BMP180;54931;52.098;21.006;2023-12-22T13:07:13;96687.20;;;0.68
68127;BMP180;54931;52.098;21.006;2023-12-22T13:09:41;96682.40;;;0.60
68127;BMP180;54931;52.098;21.006;2023-12-22T13:12:11;96681.80;;;0.60
68127;BMP180;54931;52.098;21.006;2023-12-22T13:14:39;96680.40;;;0.50
68127;BMP180;54931;52.098;21.006;2023-12-22T13:17:07;96677.00;;;0.50
68127;BMP180;54931;52.098;21.006;2023-12-22T13:19:38;96675.80;;;0.40
68127;BMP180;54931;52.098;21.006;2023-12-22T13:22:07;96675.60;;;0.40
68127;BMP180;54931;52.098;21.006;2023-12-22T13:24:35;96676.80;;;0.40
68127;BMP180;54931;52.098;21.006;2023-12-22T13:27:04;96667.80;;;0.40
68127;BMP180;54931;52.098;21.006;2023-12-22T13:29:44;96662.80;;;0.40
68127;BMP180;54931;52.098;21.006;2023-12-22T13:32:17;96657.00;;;0.40
68127;BMP180;54931;52.098;21.006;2023-12-22T13:34:55;96655.00;;;0.40
68127;BMP180;54931;52.098;21.006;2023-12-22T13:37:24;96660.80;;;0.40
68127;BMP180;54931;52.098;21.006;2023-12-22T13:39:54;96650.00;;;0.40
68127;BMP180;54931;52.098;21.006;2023-12-22T13:42:23;96650.80;;;0.44
68127;BMP180;54931;52.098;21.006;2023-12-22T13:44:51;96654.40;;;0.44
68127;BMP180;54931;52.098;21.006;2023-12-22T13:47:20;96656.40;;;0.40
68127;BMP180;54931;52.098;21.006;2023-12-22T13:49:48;96643.20;;;0.40
68127;BMP180;54931;52.098;21.006;2023-12-22T13:52:32;96646.40;;;0.40
68127;BMP180;54931;52.098;21.006;2023-12-22T13:55:10;96643.60;;;0.40
68127;BMP180;54931;52.098;21.006;2023-12-22T13:57:38;96651.20;;;0.40
68127;BMP180;54931;52.098;21.006;2023-12-22T14:02:47;96640.40;;;0.40
68127;BMP180;54931;52.098;21.006;2023-12-22T14:05:19;96645.80;;;0.40
68127;BMP180;54931;52.098;21.006;2023-12-22T14:07:48;96636.80;;;0.40
68127;BMP180;54931;52.098;21.006;2023-12-22T14:10:16;96637.60;;;0.40
68127;BMP180;54931;52.098;21.006;2023-12-22T14:12:44;96636.40;;;0.40
68127;BMP180;54931;52.098;21.006;2023-12-22T14:15:12;96629.00;;;0.32
68127;BMP180;54931;52.098;21.006;2023-12-22T14:17:41;96623.80;;;0.30
68127;BMP180;54931;52.098;21.006;2023-12-22T14:20:10;96626.60;;;0.30
68127;BMP180;54931;52.098;21.006;2023-12-22T14:22:39;96628.60;;;0.30
68127;BMP180;54931;52.098;21.006;2023-12-22T14:25:07;96639.00;;;0.30
68127;BMP180;54931;52.098;21.006;2023-12-22T14:27:35;96630.60;;;0.30
68127;BMP180;54931;52.098;21.006;2023-12-22T14:30:03;96621.80;;;0.30